sensor_id;sensor_type;location;lat;lon;timestamp;P1;durP1;ratioP1;P2;durP2;ratioP2
34765;SDS011;20984;43.508;1.504;2023-02-28T00:01:26;8.25;;;7.53;;
34765;SDS011;20984;43.508;1.504;2023-02-28T00:03:52;8.00;;;7.40;;
34765;SDS011;20984;43.508;1.504;2023-02-28T00:06:18;12.07;;;8.18;;
34765;SDS011;20984;43.508;1.504;2023-02-28T00:08:44;8.80;;;8.00;;
34765;SDS011;20984;43.508;1.504;2023-02-28T00:11:11;9.45;;;8.52;;
34765;SDS011;20984;43.508;1.504;2023-02-28T00:13:40;9.63;;;8.68;;
34765;SDS011;20984;43.508;1.504;2023-02-28T00:16:11;9.02;;;8.23;;
34765;SDS011;20984;43.508;1.504;2023-02-28T00:18:38;8.73;;;7.85;;
34765;SDS011;20984;43.508;1.504;2023-02-28T00:21:04;8.38;;;7.57;;
34765;SDS011;20984;43.508;1.504;2023-02-28T00:23:31;9.05;;;8.05;;
34765;SDS011;20984;43.508;1.504;2023-02-28T00:25:57;9.48;;;8.57;;
34765;SDS011;20984;43.508;1.504;2023-02-28T00:28:22;8.55;;;7.75;;
34765;SDS011;20984;43.508;1.504;2023-02-28T00:30:49;7.43;;;6.82;;
34765;SDS011;20984;43.508;1.504;2023-02-28T00:33:14;9.13;;;8.23;;
34765;SDS011;20984;43.508;1.504;2023-02-28T00:35:40;9.27;;;8.27;;
34765;SDS011;20984;43.508;1.504;2023-02-28T00:38:06;8.18;;;7.47;;
34765;SDS011;20984;43.508;1.504;2023-02-28T00:40:32;9.25;;;8.35;;
34765;SDS011;20984;43.508;1.504;2023-02-28T00:42:58;8.52;;;7.70;;
34765;SDS011;20984;43.508;1.504;2023-02-28T00:45:23;8.40;;;7.60;;
34765;SDS011;20984;43.508;1.504;2023-02-28T00:47:49;7.70;;;7.00;;
34765;SDS011;20984;43.508;1.504;2023-02-28T00:50:36;9.32;;;8.43;;
34765;SDS011;20984;43.508;1.504;2023-02-28T00:53:02;7.47;;;6.95;;
34765;SDS011;20984;43.508;1.504;2023-02-28T00:55:28;8.00;;;7.30;;
34765;SDS011;20984;43.508;1.504;2023-02-28T00:57:53;8.68;;;7.97;;
34765;SDS011;20984;43.508;1.504;2023-02-28T01:00:19;9.27;;;7.88;;
34765;SDS011;20984;43.508;1.504;2023-02-28T01:02:45;9.55;;;8.80;;
34765;SDS011;20984;43.508;1.504;2023-02-28T01:05:10;13.35;;;8.27;;
34765;SDS011;20984;43.508;1.504;2023-02-28T01:07:36;9.52;;;8.70;;
34765;SDS011;20984;43.508;1.504;2023-02-28T01:10:03;11.48;;;8.70;;
34765;SDS011;20984;43.508;1.504;2023-02-28T01:12:29;10.32;;;9.38;;
34765;SDS011;20984;43.508;1.504;2023-02-28T01:14:54;9.48;;;8.57;;
34765;SDS011;20984;43.508;1.504;2023-02-28T01:17:20;11.05;;;9.10;;
34765;SDS011;20984;43.508;1.504;2023-02-28T01:19:46;9.18;;;8.20;;
34765;SDS011;20984;43.508;1.504;2023-02-28T01:22:11;10.45;;;9.45;;
34765;SDS011;20984;43.508;1.504;2023-02-28T01:24:37;10.27;;;8.93;;
34765;SDS011;20984;43.508;1.504;2023-02-28T01:27:03;9.60;;;8.68;;
34765;SDS011;20984;43.508;1.504;2023-02-28T01:29:28;10.65;;;8.60;;
34765;SDS011;20984;43.508;1.504;2023-02-28T01:31:54;8.93;;;8.05;;
34765;SDS011;20984;43.508;1.504;2023-02-28T01:34:20;10.35;;;9.35;;
34765;SDS011;20984;43.508;1.504;2023-02-28T01:36:46;11.55;;;8.90;;
34765;SDS011;20984;43.508;1.504;2023-02-28T01:39:11;8.95;;;8.20;;
34765;SDS011;20984;43.508;1.504;2023-02-28T01:41:37;8.32;;;7.38;;
34765;SDS011;20984;43.508;1.504;2023-02-28T01:44:53;10.82;;;9.68;;
34765;SDS011;20984;43.508;1.504;2023-02-28T01:47:10;10.60;;;9.43;;
34765;SDS011;20984;43.508;1.504;2023-02-28T01:49:36;9.48;;;8.55;;
34765;SDS011;20984;43.508;1.504;2023-02-28T01:52:02;12.75;;;9.02;;
34765;SDS011;20984;43.508;1.504;2023-02-28T01:54:29;13.73;;;9.27;;
34765;SDS011;20984;43.508;1.504;2023-02-28T01:57:04;10.35;;;9.30;;
34765;SDS011;20984;43.508;1.504;2023-02-28T01:59:45;11.07;;;9.00;;
34765;SDS011;20984;43.508;1.504;2023-02-28T02:02:26;10.57;;;9.43;;
34765;SDS011;20984;43.508;1.504;2023-02-28T02:05:07;10.52;;;9.38;;
34765;SDS011;20984;43.508;1.504;2023-02-28T02:07:36;9.60;;;8.65;;
34765;SDS011;20984;43.508;1.504;2023-02-28T02:10:10;10.75;;;9.68;;
34765;SDS011;20984;43.508;1.504;2023-02-28T02:26:51;9.80;;;8.80;;
34765;SDS011;20984;43.508;1.504;2023-02-28T02:32:19;10.10;;;9.18;;
34765;SDS011;20984;43.508;1.504;2023-02-28T02:38:03;9.73;;;8.90;;
34765;SDS011;20984;43.508;1.504;2023-02-28T02:40:35;10.45;;;8.80;;
34765;SDS011;20984;43.508;1.504;2023-02-28T02:43:19;10.70;;;9.60;;
34765;SDS011;20984;43.508;1.504;2023-02-28T02:46:19;10.93;;;10.02;;
34765;SDS011;20984;43.508;1.504;2023-02-28T02:48:49;10.25;;;9.32;;
34765;SDS011;20984;43.508;1.504;2023-02-28T02:51:20;10.38;;;8.82;;
34765;SDS011;20984;43.508;1.504;2023-02-28T02:53:52;9.80;;;8.82;;
34765;SDS011;20984;43.508;1.504;2023-02-28T02:56:23;9.98;;;9.00;;
34765;SDS011;20984;43.508;1.504;2023-02-28T02:58:53;11.83;;;8.83;;
34765;SDS011;20984;43.508;1.504;2023-02-28T03:01:22;10.68;;;9.73;;
34765;SDS011;20984;43.508;1.504;2023-02-28T03:03:56;11.40;;;9.13;;
34765;SDS011;20984;43.508;1.504;2023-02-28T03:06:25;10.30;;;9.27;;
34765;SDS011;20984;43.508;1.504;2023-02-28T03:08:51;9.50;;;8.60;;
34765;SDS011;20984;43.508;1.504;2023-02-28T03:11:17;9.70;;;8.82;;
34765;SDS011;20984;43.508;1.504;2023-02-28T03:13:51;10.82;;;9.73;;
34765;SDS011;20984;43.508;1.504;2023-02-28T03:16:36;12.98;;;9.25;;
34765;SDS011;20984;43.508;1.504;2023-02-28T03:27:09;11.48;;;9.75;;
34765;SDS011;20984;43.508;1.504;2023-02-28T03:29:54;10.98;;;9.57;;
34765;SDS011;20984;43.508;1.504;2023-02-28T03:33:01;10.43;;;9.35;;
34765;SDS011;20984;43.508;1.504;2023-02-28T03:35:57;9.68;;;8.85;;
34765;SDS011;20984;43.508;1.504;2023-02-28T03:38:33;11.70;;;8.65;;
34765;SDS011;20984;43.508;1.504;2023-02-28T03:43:40;11.05;;;9.82;;
34765;SDS011;20984;43.508;1.504;2023-02-28T03:46:09;9.27;;;8.48;;
34765;SDS011;20984;43.508;1.504;2023-02-28T03:48:42;10.85;;;9.75;;
34765;SDS011;20984;43.508;1.504;2023-02-28T03:51:18;10.20;;;9.23;;
34765;SDS011;20984;43.508;1.504;2023-02-28T03:53:50;11.80;;;8.20;;
34765;SDS011;20984;43.508;1.504;2023-02-28T04:01:35;10.40;;;9.40;;
34765;SDS011;20984;43.508;1.504;2023-02-28T04:04:06;10.50;;;9.40;;
34765;SDS011;20984;43.508;1.504;2023-02-28T04:06:33;11.63;;;9.30;;
34765;SDS011;20984;43.508;1.504;2023-02-28T04:08:59;11.20;;;10.02;;
34765;SDS011;20984;43.508;1.504;2023-02-28T04:13:51;13.38;;;10.00;;
34765;SDS011;20984;43.508;1.504;2023-02-28T04:16:17;10.98;;;9.60;;
34765;SDS011;20984;43.508;1.504;2023-02-28T04:18:43;8.63;;;7.80;;
34765;SDS011;20984;43.508;1.504;2023-02-28T04:21:09;10.50;;;9.63;;
34765;SDS011;20984;43.508;1.504;2023-02-28T04:23:35;13.13;;;10.73;;
34765;SDS011;20984;43.508;1.504;2023-02-28T04:26:01;9.43;;;8.57;;
34765;SDS011;20984;43.508;1.504;2023-02-28T04:28:28;10.60;;;9.60;;
34765;SDS011;20984;43.508;1.504;2023-02-28T04:30:58;12.70;;;11.50;;
34765;SDS011;20984;43.508;1.504;2023-02-28T04:33:25;12.73;;;10.98;;
34765;SDS011;20984;43.508;1.504;2023-02-28T04:35:58;11.68;;;10.15;;
34765;SDS011;20984;43.508;1.504;2023-02-28T04:38:28;12.15;;;10.88;;
34765;SDS011;20984;43.508;1.504;2023-02-28T04:40:58;12.93;;;11.63;;
34765;SDS011;20984;43.508;1.504;2023-02-28T04:43:25;10.98;;;9.90;;
34765;SDS011;20984;43.508;1.504;2023-02-28T04:45:52;15.90;;;12.10;;
34765;SDS011;20984;43.508;1.504;2023-02-28T04:48:21;12.18;;;10.95;;
34765;SDS011;20984;43.508;1.504;2023-02-28T04:50:51;11.93;;;10.60;;
34765;SDS011;20984;43.508;1.504;2023-02-28T04:53:17;12.80;;;10.07;;
34765;SDS011;20984;43.508;1.504;2023-02-28T04:55:43;9.68;;;8.73;;
34765;SDS011;20984;43.508;1.504;2023-02-28T04:58:08;11.88;;;10.68;;
34765;SDS011;20984;43.508;1.504;2023-02-28T05:00:34;12.25;;;10.68;;
34765;SDS011;20984;43.508;1.504;2023-02-28T05:03:00;12.18;;;11.02;;
34765;SDS011;20984;43.508;1.504;2023-02-28T05:05:26;13.00;;;11.80;;
34765;SDS011;20984;43.508;1.504;2023-02-28T05:07:52;13.10;;;11.80;;
34765;SDS011;20984;43.508;1.504;2023-02-28T05:10:18;12.65;;;11.35;;
34765;SDS011;20984;43.508;1.504;2023-02-28T05:12:44;13.10;;;11.73;;
34765;SDS011;20984;43.508;1.504;2023-02-28T05:15:13;13.07;;;11.80;;
34765;SDS011;20984;43.508;1.504;2023-02-28T05:17:40;13.15;;;11.77;;
34765;SDS011;20984;43.508;1.504;2023-02-28T05:20:06;12.07;;;11.00;;
34765;SDS011;20984;43.508;1.504;2023-02-28T05:22:35;12.63;;;11.32;;
34765;SDS011;20984;43.508;1.504;2023-02-28T05:25:02;13.07;;;11.77;;
34765;SDS011;20984;43.508;1.504;2023-02-28T05:27:29;12.98;;;11.68;;
34765;SDS011;20984;43.508;1.504;2023-02-28T05:29:55;13.45;;;12.05;;
34765;SDS011;20984;43.508;1.504;2023-02-28T05:32:21;14.55;;;13.15;;
34765;SDS011;20984;43.508;1.504;2023-02-28T05:34:47;16.65;;;12.77;;
34765;SDS011;20984;43.508;1.504;2023-02-28T05:37:13;14.25;;;12.77;;
34765;SDS011;20984;43.508;1.504;2023-02-28T05:39:40;14.13;;;12.80;;
34765;SDS011;20984;43.508;1.504;2023-02-28T05:42:06;14.82;;;13.38;;
34765;SDS011;20984;43.508;1.504;2023-02-28T05:44:32;14.45;;;13.07;;
34765;SDS011;20984;43.508;1.504;2023-02-28T05:46:58;13.48;;;12.20;;
34765;SDS011;20984;43.508;1.504;2023-02-28T05:49:24;16.02;;;13.75;;
34765;SDS011;20984;43.508;1.504;2023-02-28T05:51:50;14.65;;;13.13;;
34765;SDS011;20984;43.508;1.504;2023-02-28T05:54:16;14.88;;;13.38;;
34765;SDS011;20984;43.508;1.504;2023-02-28T05:56:41;13.25;;;12.02;;
34765;SDS011;20984;43.508;1.504;2023-02-28T05:59:10;13.75;;;12.30;;
34765;SDS011;20984;43.508;1.504;2023-02-28T06:01:44;14.43;;;11.27;;
34765;SDS011;20984;43.508;1.504;2023-02-28T06:04:13;15.82;;;13.48;;
34765;SDS011;20984;43.508;1.504;2023-02-28T06:06:43;14.40;;;12.90;;
34765;SDS011;20984;43.508;1.504;2023-02-28T06:09:09;13.40;;;12.15;;
34765;SDS011;20984;43.508;1.504;2023-02-28T06:11:35;14.15;;;12.73;;
34765;SDS011;20984;43.508;1.504;2023-02-28T06:14:01;14.48;;;12.48;;
34765;SDS011;20984;43.508;1.504;2023-02-28T06:16:28;15.80;;;14.25;;
34765;SDS011;20984;43.508;1.504;2023-02-28T06:18:56;16.15;;;14.50;;
34765;SDS011;20984;43.508;1.504;2023-02-28T06:21:23;14.15;;;12.82;;
34765;SDS011;20984;43.508;1.504;2023-02-28T06:23:49;14.50;;;13.00;;
34765;SDS011;20984;43.508;1.504;2023-02-28T06:26:14;15.98;;;13.57;;
34765;SDS011;20984;43.508;1.504;2023-02-28T06:28:40;14.15;;;12.60;;
34765;SDS011;20984;43.508;1.504;2023-02-28T06:31:10;14.52;;;13.05;;
34765;SDS011;20984;43.508;1.504;2023-02-28T06:33:37;14.27;;;12.80;;
34765;SDS011;20984;43.508;1.504;2023-02-28T06:36:04;15.10;;;13.57;;
34765;SDS011;20984;43.508;1.504;2023-02-28T06:38:31;15.00;;;13.07;;
34765;SDS011;20984;43.508;1.504;2023-02-28T06:40:58;13.90;;;11.38;;
34765;SDS011;20984;43.508;1.504;2023-02-28T06:43:25;21.75;;;13.05;;
34765;SDS011;20984;43.508;1.504;2023-02-28T06:45:54;15.20;;;13.43;;
34765;SDS011;20984;43.508;1.504;2023-02-28T06:48:22;13.98;;;12.55;;
34765;SDS011;20984;43.508;1.504;2023-02-28T06:50:47;14.73;;;12.88;;
34765;SDS011;20984;43.508;1.504;2023-02-28T06:53:13;13.45;;;11.88;;
34765;SDS011;20984;43.508;1.504;2023-02-28T06:55:39;14.60;;;13.07;;
34765;SDS011;20984;43.508;1.504;2023-02-28T06:58:06;15.57;;;13.57;;
34765;SDS011;20984;43.508;1.504;2023-02-28T07:00:42;15.30;;;11.85;;
34765;SDS011;20984;43.508;1.504;2023-02-28T07:03:09;16.55;;;10.95;;
34765;SDS011;20984;43.508;1.504;2023-02-28T07:05:36;14.27;;;12.20;;
34765;SDS011;20984;43.508;1.504;2023-02-28T07:08:02;13.30;;;11.93;;
34765;SDS011;20984;43.508;1.504;2023-02-28T07:10:29;12.70;;;11.45;;
34765;SDS011;20984;43.508;1.504;2023-02-28T07:12:55;13.25;;;12.00;;
34765;SDS011;20984;43.508;1.504;2023-02-28T07:15:21;15.07;;;12.90;;
34765;SDS011;20984;43.508;1.504;2023-02-28T07:17:46;13.45;;;12.02;;
34765;SDS011;20984;43.508;1.504;2023-02-28T07:20:12;15.77;;;13.32;;
34765;SDS011;20984;43.508;1.504;2023-02-28T07:22:38;14.32;;;12.57;;
34765;SDS011;20984;43.508;1.504;2023-02-28T07:25:04;13.80;;;12.30;;
34765;SDS011;20984;43.508;1.504;2023-02-28T07:27:30;15.07;;;11.85;;
34765;SDS011;20984;43.508;1.504;2023-02-28T07:29:56;13.00;;;11.80;;
34765;SDS011;20984;43.508;1.504;2023-02-28T07:32:22;13.10;;;11.82;;
34765;SDS011;20984;43.508;1.504;2023-02-28T07:34:48;12.15;;;10.88;;
34765;SDS011;20984;43.508;1.504;2023-02-28T07:37:14;14.38;;;11.63;;
34765;SDS011;20984;43.508;1.504;2023-02-28T07:39:40;13.05;;;11.88;;
34765;SDS011;20984;43.508;1.504;2023-02-28T07:42:08;13.00;;;11.25;;
34765;SDS011;20984;43.508;1.504;2023-02-28T07:44:36;14.48;;;11.18;;
34765;SDS011;20984;43.508;1.504;2023-02-28T07:47:08;11.40;;;10.38;;
34765;SDS011;20984;43.508;1.504;2023-02-28T07:49:37;14.05;;;11.30;;
34765;SDS011;20984;43.508;1.504;2023-02-28T07:52:04;14.60;;;11.77;;
34765;SDS011;20984;43.508;1.504;2023-02-28T07:54:31;12.23;;;11.10;;
34765;SDS011;20984;43.508;1.504;2023-02-28T07:56:57;11.82;;;10.63;;
34765;SDS011;20984;43.508;1.504;2023-02-28T07:59:23;11.05;;;9.77;;
34765;SDS011;20984;43.508;1.504;2023-02-28T08:01:49;12.30;;;11.13;;
34765;SDS011;20984;43.508;1.504;2023-02-28T08:04:18;12.32;;;10.98;;
34765;SDS011;20984;43.508;1.504;2023-02-28T08:06:44;12.02;;;10.75;;
34765;SDS011;20984;43.508;1.504;2023-02-28T08:09:10;11.75;;;10.55;;
34765;SDS011;20984;43.508;1.504;2023-02-28T08:11:36;11.43;;;10.32;;
34765;SDS011;20984;43.508;1.504;2023-02-28T08:14:02;13.55;;;10.38;;
34765;SDS011;20984;43.508;1.504;2023-02-28T08:16:28;14.00;;;10.30;;
34765;SDS011;20984;43.508;1.504;2023-02-28T08:18:53;12.00;;;10.18;;
34765;SDS011;20984;43.508;1.504;2023-02-28T08:21:19;13.00;;;10.35;;
34765;SDS011;20984;43.508;1.504;2023-02-28T08:23:46;15.95;;;10.27;;
34765;SDS011;20984;43.508;1.504;2023-02-28T08:26:13;12.88;;;10.30;;
34765;SDS011;20984;43.508;1.504;2023-02-28T08:28:39;12.27;;;10.48;;
34765;SDS011;20984;43.508;1.504;2023-02-28T08:31:09;12.38;;;11.05;;
34765;SDS011;20984;43.508;1.504;2023-02-28T08:36:02;10.38;;;9.27;;
34765;SDS011;20984;43.508;1.504;2023-02-28T08:38:28;10.38;;;9.38;;
34765;SDS011;20984;43.508;1.504;2023-02-28T08:40:57;12.10;;;10.18;;
34765;SDS011;20984;43.508;1.504;2023-02-28T08:43:23;14.80;;;10.55;;
34765;SDS011;20984;43.508;1.504;2023-02-28T08:45:53;10.32;;;9.07;;
34765;SDS011;20984;43.508;1.504;2023-02-28T08:48:21;10.77;;;9.68;;
34765;SDS011;20984;43.508;1.504;2023-02-28T08:50:55;11.00;;;9.90;;
34765;SDS011;20984;43.508;1.504;2023-02-28T08:53:25;10.32;;;7.15;;
34765;SDS011;20984;43.508;1.504;2023-02-28T08:58:24;10.50;;;9.38;;
34765;SDS011;20984;43.508;1.504;2023-02-28T09:00:50;11.23;;;10.23;;
34765;SDS011;20984;43.508;1.504;2023-02-28T09:03:16;13.95;;;9.55;;
34765;SDS011;20984;43.508;1.504;2023-02-28T09:05:51;10.15;;;8.18;;
34765;SDS011;20984;43.508;1.504;2023-02-28T09:08:18;11.23;;;9.52;;
34765;SDS011;20984;43.508;1.504;2023-02-28T09:10:44;11.88;;;9.63;;
34765;SDS011;20984;43.508;1.504;2023-02-28T09:13:09;9.90;;;8.90;;
34765;SDS011;20984;43.508;1.504;2023-02-28T09:15:37;11.13;;;7.90;;
34765;SDS011;20984;43.508;1.504;2023-02-28T09:18:03;9.93;;;8.93;;
34765;SDS011;20984;43.508;1.504;2023-02-28T09:20:28;10.68;;;9.45;;
34765;SDS011;20984;43.508;1.504;2023-02-28T09:22:54;10.40;;;8.65;;
34765;SDS011;20984;43.508;1.504;2023-02-28T09:25:20;11.88;;;9.50;;
34765;SDS011;20984;43.508;1.504;2023-02-28T09:27:46;11.20;;;8.70;;
34765;SDS011;20984;43.508;1.504;2023-02-28T09:30:12;10.35;;;9.30;;
34765;SDS011;20984;43.508;1.504;2023-02-28T09:32:38;9.40;;;7.95;;
34765;SDS011;20984;43.508;1.504;2023-02-28T09:35:04;9.45;;;8.25;;
34765;SDS011;20984;43.508;1.504;2023-02-28T09:37:30;9.70;;;8.85;;
34765;SDS011;20984;43.508;1.504;2023-02-28T09:39:56;9.02;;;8.23;;
34765;SDS011;20984;43.508;1.504;2023-02-28T09:42:25;9.25;;;7.80;;
34765;SDS011;20984;43.508;1.504;2023-02-28T09:44:57;9.73;;;8.32;;
34765;SDS011;20984;43.508;1.504;2023-02-28T09:49:58;10.75;;;8.18;;
34765;SDS011;20984;43.508;1.504;2023-02-28T09:52:48;10.02;;;8.68;;
34765;SDS011;20984;43.508;1.504;2023-02-28T09:57:55;10.30;;;8.88;;
34765;SDS011;20984;43.508;1.504;2023-02-28T10:00:27;11.15;;;8.52;;
34765;SDS011;20984;43.508;1.504;2023-02-28T10:05:27;8.63;;;7.82;;
34765;SDS011;20984;43.508;1.504;2023-02-28T10:10:51;9.15;;;8.23;;
34765;SDS011;20984;43.508;1.504;2023-02-28T10:15:49;8.93;;;8.02;;
34765;SDS011;20984;43.508;1.504;2023-02-28T10:18:21;10.32;;;7.03;;
34765;SDS011;20984;43.508;1.504;2023-02-28T10:20:51;9.63;;;7.63;;
34765;SDS011;20984;43.508;1.504;2023-02-28T10:23:21;11.52;;;8.75;;
34765;SDS011;20984;43.508;1.504;2023-02-28T10:26:00;9.85;;;8.85;;
34765;SDS011;20984;43.508;1.504;2023-02-28T10:28:30;9.23;;;8.32;;
34765;SDS011;20984;43.508;1.504;2023-02-28T10:30:56;9.52;;;8.20;;
34765;SDS011;20984;43.508;1.504;2023-02-28T10:35:49;11.52;;;8.77;;
34765;SDS011;20984;43.508;1.504;2023-02-28T10:38:17;8.70;;;7.80;;
34765;SDS011;20984;43.508;1.504;2023-02-28T10:40:50;10.77;;;9.68;;
34765;SDS011;20984;43.508;1.504;2023-02-28T10:48:39;9.10;;;8.20;;
34765;SDS011;20984;43.508;1.504;2023-02-28T10:51:24;15.40;;;8.70;;
34765;SDS011;20984;43.508;1.504;2023-02-28T10:53:53;14.85;;;9.32;;
34765;SDS011;20984;43.508;1.504;2023-02-28T10:56:21;11.82;;;8.05;;
34765;SDS011;20984;43.508;1.504;2023-02-28T11:01:23;11.63;;;8.73;;
34765;SDS011;20984;43.508;1.504;2023-02-28T11:03:49;10.07;;;8.82;;
34765;SDS011;20984;43.508;1.504;2023-02-28T11:06:17;9.55;;;8.60;;
34765;SDS011;20984;43.508;1.504;2023-02-28T11:08:52;9.15;;;8.32;;
34765;SDS011;20984;43.508;1.504;2023-02-28T11:11:20;9.65;;;8.20;;
34765;SDS011;20984;43.508;1.504;2023-02-28T11:13:50;9.32;;;8.35;;
34765;SDS011;20984;43.508;1.504;2023-02-28T11:16:20;8.90;;;8.00;;
34765;SDS011;20984;43.508;1.504;2023-02-28T11:18:49;8.88;;;7.38;;
34765;SDS011;20984;43.508;1.504;2023-02-28T11:23:51;9.75;;;8.80;;
34765;SDS011;20984;43.508;1.504;2023-02-28T11:26:37;9.68;;;8.30;;
34765;SDS011;20984;43.508;1.504;2023-02-28T11:34:44;8.32;;;6.40;;
34765;SDS011;20984;43.508;1.504;2023-02-28T11:37:12;12.82;;;8.55;;
34765;SDS011;20984;43.508;1.504;2023-02-28T11:39:43;10.98;;;7.85;;
34765;SDS011;20984;43.508;1.504;2023-02-28T11:53:46;8.75;;;7.65;;
34765;SDS011;20984;43.508;1.504;2023-02-28T11:56:30;12.18;;;10.05;;
34765;SDS011;20984;43.508;1.504;2023-02-28T11:59:21;11.60;;;9.63;;
34765;SDS011;20984;43.508;1.504;2023-02-28T12:02:20;12.32;;;9.90;;
34765;SDS011;20984;43.508;1.504;2023-02-28T12:18:27;12.02;;;10.18;;
34765;SDS011;20984;43.508;1.504;2023-02-28T12:29:16;9.25;;;8.10;;
34765;SDS011;20984;43.508;1.504;2023-02-28T12:31:53;10.32;;;8.55;;
34765;SDS011;20984;43.508;1.504;2023-02-28T12:34:22;9.38;;;8.45;;
34765;SDS011;20984;43.508;1.504;2023-02-28T12:37:22;10.10;;;9.10;;
34765;SDS011;20984;43.508;1.504;2023-02-28T12:39:54;10.40;;;8.05;;
34765;SDS011;20984;43.508;1.504;2023-02-28T12:42:31;9.18;;;7.78;;
34765;SDS011;20984;43.508;1.504;2023-02-28T12:45:03;8.43;;;7.53;;
34765;SDS011;20984;43.508;1.504;2023-02-28T12:47:34;11.93;;;8.27;;
34765;SDS011;20984;43.508;1.504;2023-02-28T12:50:08;9.90;;;8.40;;
34765;SDS011;20984;43.508;1.504;2023-02-28T12:52:54;12.30;;;8.85;;
34765;SDS011;20984;43.508;1.504;2023-02-28T12:58:34;10.20;;;9.23;;
34765;SDS011;20984;43.508;1.504;2023-02-28T13:09:51;10.77;;;9.55;;
34765;SDS011;20984;43.508;1.504;2023-02-28T13:12:22;9.38;;;7.88;;
34765;SDS011;20984;43.508;1.504;2023-02-28T13:14:48;10.95;;;7.35;;
34765;SDS011;20984;43.508;1.504;2023-02-28T13:17:21;8.98;;;8.07;;
34765;SDS011;20984;43.508;1.504;2023-02-28T13:24:51;13.32;;;8.85;;
34765;SDS011;20984;43.508;1.504;2023-02-28T13:29:50;8.88;;;7.78;;
34765;SDS011;20984;43.508;1.504;2023-02-28T13:58:09;8.35;;;7.55;;
34765;SDS011;20984;43.508;1.504;2023-02-28T14:03:41;9.20;;;7.03;;
34765;SDS011;20984;43.508;1.504;2023-02-28T14:06:32;13.00;;;8.57;;
34765;SDS011;20984;43.508;1.504;2023-02-28T14:11:34;10.45;;;8.15;;
34765;SDS011;20984;43.508;1.504;2023-02-28T14:14:02;10.70;;;7.75;;
34765;SDS011;20984;43.508;1.504;2023-02-28T14:16:45;9.63;;;7.85;;
34765;SDS011;20984;43.508;1.504;2023-02-28T14:19:19;9.98;;;7.50;;
34765;SDS011;20984;43.508;1.504;2023-02-28T14:30:10;9.20;;;7.35;;
34765;SDS011;20984;43.508;1.504;2023-02-28T14:37:50;10.65;;;7.43;;
34765;SDS011;20984;43.508;1.504;2023-02-28T14:40:20;8.60;;;7.70;;
34765;SDS011;20984;43.508;1.504;2023-02-28T14:42:59;6.82;;;6.22;;
34765;SDS011;20984;43.508;1.504;2023-02-28T14:45:27;9.27;;;7.93;;
34765;SDS011;20984;43.508;1.504;2023-02-28T14:47:55;9.35;;;7.22;;
34765;SDS011;20984;43.508;1.504;2023-02-28T14:50:33;8.57;;;6.97;;
34765;SDS011;20984;43.508;1.504;2023-02-28T14:53:00;8.02;;;6.93;;
34765;SDS011;20984;43.508;1.504;2023-02-28T14:55:31;8.23;;;7.45;;
34765;SDS011;20984;43.508;1.504;2023-02-28T14:57:59;9.70;;;8.70;;
34765;SDS011;20984;43.508;1.504;2023-02-28T15:00:34;9.02;;;8.13;;
34765;SDS011;20984;43.508;1.504;2023-02-28T15:03:18;12.60;;;7.95;;
34765;SDS011;20984;43.508;1.504;2023-02-28T15:05:54;8.45;;;7.55;;
34765;SDS011;20984;43.508;1.504;2023-02-28T15:08:24;8.02;;;7.25;;
34765;SDS011;20984;43.508;1.504;2023-02-28T15:10:53;8.40;;;7.60;;
34765;SDS011;20984;43.508;1.504;2023-02-28T15:13:47;8.65;;;7.50;;
34765;SDS011;20984;43.508;1.504;2023-02-28T15:16:37;9.27;;;7.50;;
34765;SDS011;20984;43.508;1.504;2023-02-28T15:21:38;11.93;;;8.48;;
34765;SDS011;20984;43.508;1.504;2023-02-28T15:24:15;8.63;;;7.60;;
34765;SDS011;20984;43.508;1.504;2023-02-28T15:26:59;12.32;;;7.90;;
34765;SDS011;20984;43.508;1.504;2023-02-28T15:29:28;11.48;;;7.70;;
34765;SDS011;20984;43.508;1.504;2023-02-28T15:32:00;7.55;;;6.82;;
34765;SDS011;20984;43.508;1.504;2023-02-28T15:37:02;11.77;;;8.10;;
34765;SDS011;20984;43.508;1.504;2023-02-28T15:39:51;8.18;;;7.20;;
34765;SDS011;20984;43.508;1.504;2023-02-28T15:42:19;9.13;;;7.20;;
34765;SDS011;20984;43.508;1.504;2023-02-28T15:44:46;7.45;;;6.75;;
34765;SDS011;20984;43.508;1.504;2023-02-28T15:47:16;9.52;;;7.72;;
34765;SDS011;20984;43.508;1.504;2023-02-28T15:49:48;9.98;;;8.10;;
34765;SDS011;20984;43.508;1.504;2023-02-28T15:52:21;8.90;;;8.00;;
34765;SDS011;20984;43.508;1.504;2023-02-28T15:54:54;10.77;;;8.68;;
34765;SDS011;20984;43.508;1.504;2023-02-28T15:57:24;12.27;;;8.27;;
34765;SDS011;20984;43.508;1.504;2023-02-28T15:59:52;9.18;;;7.85;;
34765;SDS011;20984;43.508;1.504;2023-02-28T16:02:25;18.63;;;8.55;;
34765;SDS011;20984;43.508;1.504;2023-02-28T16:05:00;8.45;;;7.40;;
34765;SDS011;20984;43.508;1.504;2023-02-28T16:07:27;11.98;;;7.65;;
34765;SDS011;20984;43.508;1.504;2023-02-28T16:09:53;8.90;;;7.55;;
34765;SDS011;20984;43.508;1.504;2023-02-28T16:12:19;8.30;;;7.50;;
34765;SDS011;20984;43.508;1.504;2023-02-28T16:14:48;8.57;;;7.40;;
34765;SDS011;20984;43.508;1.504;2023-02-28T16:17:21;9.00;;;7.72;;
34765;SDS011;20984;43.508;1.504;2023-02-28T16:19:49;9.80;;;7.50;;
34765;SDS011;20984;43.508;1.504;2023-02-28T16:22:15;13.15;;;7.15;;
34765;SDS011;20984;43.508;1.504;2023-02-28T16:24:41;7.88;;;6.47;;
34765;SDS011;20984;43.508;1.504;2023-02-28T16:27:09;9.75;;;6.90;;
34765;SDS011;20984;43.508;1.504;2023-02-28T16:29:57;7.90;;;7.07;;
34765;SDS011;20984;43.508;1.504;2023-02-28T16:32:23;10.15;;;8.60;;
34765;SDS011;20984;43.508;1.504;2023-02-28T16:34:49;12.23;;;7.82;;
34765;SDS011;20984;43.508;1.504;2023-02-28T16:37:16;9.80;;;8.38;;
34765;SDS011;20984;43.508;1.504;2023-02-28T16:39:43;9.80;;;8.23;;
34765;SDS011;20984;43.508;1.504;2023-02-28T16:42:25;11.30;;;7.38;;
34765;SDS011;20984;43.508;1.504;2023-02-28T16:44:53;11.20;;;7.85;;
34765;SDS011;20984;43.508;1.504;2023-02-28T16:47:20;9.52;;;7.90;;
34765;SDS011;20984;43.508;1.504;2023-02-28T16:49:47;12.45;;;8.50;;
34765;SDS011;20984;43.508;1.504;2023-02-28T16:52:12;10.13;;;8.10;;
34765;SDS011;20984;43.508;1.504;2023-02-28T16:54:39;9.02;;;8.05;;
34765;SDS011;20984;43.508;1.504;2023-02-28T16:57:06;10.80;;;8.68;;
34765;SDS011;20984;43.508;1.504;2023-02-28T16:59:41;10.77;;;7.63;;
34765;SDS011;20984;43.508;1.504;2023-02-28T17:02:11;8.82;;;7.93;;
34765;SDS011;20984;43.508;1.504;2023-02-28T17:04:39;12.82;;;9.85;;
34765;SDS011;20984;43.508;1.504;2023-02-28T17:07:04;16.27;;;11.82;;
34765;SDS011;20984;43.508;1.504;2023-02-28T17:09:33;16.10;;;12.63;;
34765;SDS011;20984;43.508;1.504;2023-02-28T17:11:58;11.95;;;10.23;;
34765;SDS011;20984;43.508;1.504;2023-02-28T17:14:24;14.57;;;9.85;;
34765;SDS011;20984;43.508;1.504;2023-02-28T17:16:50;13.80;;;10.52;;
34765;SDS011;20984;43.508;1.504;2023-02-28T17:19:16;10.63;;;9.05;;
34765;SDS011;20984;43.508;1.504;2023-02-28T17:21:42;11.73;;;10.45;;
34765;SDS011;20984;43.508;1.504;2023-02-28T17:24:08;11.77;;;9.07;;
34765;SDS011;20984;43.508;1.504;2023-02-28T17:26:37;10.20;;;8.65;;
34765;SDS011;20984;43.508;1.504;2023-02-28T17:29:05;10.52;;;8.73;;
34765;SDS011;20984;43.508;1.504;2023-02-28T17:31:37;9.95;;;8.93;;
34765;SDS011;20984;43.508;1.504;2023-02-28T17:34:04;11.75;;;8.95;;
34765;SDS011;20984;43.508;1.504;2023-02-28T17:36:29;14.38;;;7.72;;
34765;SDS011;20984;43.508;1.504;2023-02-28T17:38:55;10.90;;;9.25;;
34765;SDS011;20984;43.508;1.504;2023-02-28T17:41:23;12.60;;;11.13;;
34765;SDS011;20984;43.508;1.504;2023-02-28T17:43:49;12.63;;;9.10;;
34765;SDS011;20984;43.508;1.504;2023-02-28T17:46:16;12.20;;;10.40;;
34765;SDS011;20984;43.508;1.504;2023-02-28T17:48:50;11.98;;;10.27;;